sensor_id;sensor_type;location;lat;lon;timestamp;P1;durP1;ratioP1;P2;durP2;ratioP2
25503;SDS011;13410;52.114;5.718;2023-02-01T00:02:15;19.65;;;3.25;;
25503;SDS011;13410;52.114;5.718;2023-02-01T00:04:40;17.30;;;3.08;;
25503;SDS011;13410;52.114;5.718;2023-02-01T00:07:06;15.82;;;2.65;;
25503;SDS011;13410;52.114;5.718;2023-02-01T00:09:31;21.65;;;3.30;;
25503;SDS011;13410;52.114;5.718;2023-02-01T00:11:57;18.17;;;3.35;;
25503;SDS011;13410;52.114;5.718;2023-02-01T00:14:24;24.02;;;3.42;;
25503;SDS011;13410;52.114;5.718;2023-02-01T00:16:50;17.17;;;2.90;;
25503;SDS011;13410;52.114;5.718;2023-02-01T00:19:15;21.85;;;3.03;;
25503;SDS011;13410;52.114;5.718;2023-02-01T00:21:41;21.13;;;3.05;;
25503;SDS011;13410;52.114;5.718;2023-02-01T00:24:08;19.92;;;3.58;;
25503;SDS011;13410;52.114;5.718;2023-02-01T00:26:38;15.48;;;3.08;;
25503;SDS011;13410;52.114;5.718;2023-02-01T00:29:10;12.75;;;2.80;;
25503;SDS011;13410;52.114;5.718;2023-02-01T00:31:42;15.07;;;2.35;;
25503;SDS011;13410;52.114;5.718;2023-02-01T00:34:09;15.95;;;2.75;;
25503;SDS011;13410;52.114;5.718;2023-02-01T00:36:37;19.20;;;3.50;;
25503;SDS011;13410;52.114;5.718;2023-02-01T00:39:02;18.70;;;2.97;;
25503;SDS011;13410;52.114;5.718;2023-02-01T00:41:28;17.25;;;2.67;;
25503;SDS011;13410;52.114;5.718;2023-02-01T00:43:53;15.55;;;2.42;;
25503;SDS011;13410;52.114;5.718;2023-02-01T00:46:19;18.20;;;3.08;;
25503;SDS011;13410;52.114;5.718;2023-02-01T00:48:46;25.20;;;3.30;;
25503;SDS011;13410;52.114;5.718;2023-02-01T00:51:13;18.80;;;3.05;;
25503;SDS011;13410;52.114;5.718;2023-02-01T00:53:41;18.67;;;2.85;;
25503;SDS011;13410;52.114;5.718;2023-02-01T00:56:06;19.75;;;3.00;;
25503;SDS011;13410;52.114;5.718;2023-02-01T00:58:33;17.02;;;2.78;;
25503;SDS011;13410;52.114;5.718;2023-02-01T01:01:06;15.85;;;2.63;;
25503;SDS011;13410;52.114;5.718;2023-02-01T01:03:42;19.02;;;3.00;;
25503;SDS011;13410;52.114;5.718;2023-02-01T01:06:11;18.42;;;3.25;;
25503;SDS011;13410;52.114;5.718;2023-02-01T01:08:39;15.00;;;2.47;;
25503;SDS011;13410;52.114;5.718;2023-02-01T01:11:10;14.85;;;2.63;;
25503;SDS011;13410;52.114;5.718;2023-02-01T01:13:37;21.15;;;3.00;;
25503;SDS011;13410;52.114;5.718;2023-02-01T01:16:04;19.88;;;2.75;;
25503;SDS011;13410;52.114;5.718;2023-02-01T01:18:31;16.38;;;2.85;;
25503;SDS011;13410;52.114;5.718;2023-02-01T01:20:58;23.27;;;2.78;;
25503;SDS011;13410;52.114;5.718;2023-02-01T01:23:24;13.35;;;2.63;;
25503;SDS011;13410;52.114;5.718;2023-02-01T01:25:49;17.80;;;2.78;;
25503;SDS011;13410;52.114;5.718;2023-02-01T01:28:15;28.10;;;3.40;;
25503;SDS011;13410;52.114;5.718;2023-02-01T01:30:41;18.08;;;2.53;;
25503;SDS011;13410;52.114;5.718;2023-02-01T01:33:06;21.55;;;2.75;;
25503;SDS011;13410;52.114;5.718;2023-02-01T01:35:32;16.20;;;3.30;;
25503;SDS011;13410;52.114;5.718;2023-02-01T01:37:58;21.60;;;3.40;;
25503;SDS011;13410;52.114;5.718;2023-02-01T01:40:25;20.08;;;2.90;;
25503;SDS011;13410;52.114;5.718;2023-02-01T01:42:52;15.75;;;2.80;;
25503;SDS011;13410;52.114;5.718;2023-02-01T01:45:29;18.73;;;2.60;;
25503;SDS011;13410;52.114;5.718;2023-02-01T01:47:57;15.82;;;2.40;;
25503;SDS011;13410;52.114;5.718;2023-02-01T01:50:32;22.13;;;3.22;;
25503;SDS011;13410;52.114;5.718;2023-02-01T01:53:01;18.77;;;2.78;;
25503;SDS011;13410;52.114;5.718;2023-02-01T01:55:31;18.17;;;2.60;;
25503;SDS011;13410;52.114;5.718;2023-02-01T01:58:02;14.90;;;2.45;;
25503;SDS011;13410;52.114;5.718;2023-02-01T02:00:35;27.13;;;3.13;;
25503;SDS011;13410;52.114;5.718;2023-02-01T02:03:03;16.17;;;2.55;;
25503;SDS011;13410;52.114;5.718;2023-02-01T02:05:36;19.38;;;2.80;;
25503;SDS011;13410;52.114;5.718;2023-02-01T02:08:02;20.67;;;2.67;;
25503;SDS011;13410;52.114;5.718;2023-02-01T02:10:28;18.35;;;2.90;;
25503;SDS011;13410;52.114;5.718;2023-02-01T02:13:39;14.98;;;2.53;;
25503;SDS011;13410;52.114;5.718;2023-02-01T02:36:00;21.63;;;2.90;;
25503;SDS011;13410;52.114;5.718;2023-02-01T02:38:36;19.37;;;2.87;;
25503;SDS011;13410;52.114;5.718;2023-02-01T02:41:33;18.10;;;2.97;;
25503;SDS011;13410;52.114;5.718;2023-02-01T02:47:54;21.52;;;2.42;;
25503;SDS011;13410;52.114;5.718;2023-02-01T02:50:23;17.13;;;3.08;;
25503;SDS011;13410;52.114;5.718;2023-02-01T02:53:13;23.63;;;3.65;;
25503;SDS011;13410;52.114;5.718;2023-02-01T02:56:05;17.83;;;2.88;;
25503;SDS011;13410;52.114;5.718;2023-02-01T02:58:51;20.90;;;3.22;;
25503;SDS011;13410;52.114;5.718;2023-02-01T03:01:37;18.08;;;2.95;;
25503;SDS011;13410;52.114;5.718;2023-02-01T03:04:23;16.15;;;3.30;;
25503;SDS011;13410;52.114;5.718;2023-02-01T03:06:50;17.88;;;3.00;;
25503;SDS011;13410;52.114;5.718;2023-02-01T03:11:56;23.77;;;3.00;;
25503;SDS011;13410;52.114;5.718;2023-02-01T03:14:46;21.05;;;2.95;;
25503;SDS011;13410;52.114;5.718;2023-02-01T03:17:17;16.47;;;2.80;;
25503;SDS011;13410;52.114;5.718;2023-02-01T03:19:48;18.13;;;2.97;;
25503;SDS011;13410;52.114;5.718;2023-02-01T03:22:18;21.15;;;3.00;;
25503;SDS011;13410;52.114;5.718;2023-02-01T03:24:56;17.30;;;2.85;;
25503;SDS011;13410;52.114;5.718;2023-02-01T03:27:29;23.27;;;3.35;;
25503;SDS011;13410;52.114;5.718;2023-02-01T03:32:36;15.90;;;3.13;;
25503;SDS011;13410;52.114;5.718;2023-02-01T03:38:04;18.75;;;2.78;;
25503;SDS011;13410;52.114;5.718;2023-02-01T03:40:42;17.63;;;2.80;;
25503;SDS011;13410;52.114;5.718;2023-02-01T03:43:10;16.17;;;2.72;;
25503;SDS011;13410;52.114;5.718;2023-02-01T03:45:41;20.98;;;3.05;;
25503;SDS011;13410;52.114;5.718;2023-02-01T03:48:11;15.63;;;2.47;;
25503;SDS011;13410;52.114;5.718;2023-02-01T03:50:38;18.15;;;3.10;;
25503;SDS011;13410;52.114;5.718;2023-02-01T03:53:11;19.55;;;3.28;;
25503;SDS011;13410;52.114;5.718;2023-02-01T03:55:42;18.83;;;3.28;;
25503;SDS011;13410;52.114;5.718;2023-02-01T03:58:15;21.25;;;3.75;;
25503;SDS011;13410;52.114;5.718;2023-02-01T04:01:01;19.30;;;3.85;;
25503;SDS011;13410;52.114;5.718;2023-02-01T04:03:27;21.50;;;3.97;;
25503;SDS011;13410;52.114;5.718;2023-02-01T04:05:53;17.25;;;3.72;;
25503;SDS011;13410;52.114;5.718;2023-02-01T04:08:19;22.23;;;3.20;;
25503;SDS011;13410;52.114;5.718;2023-02-01T04:10:45;16.48;;;3.00;;
25503;SDS011;13410;52.114;5.718;2023-02-01T04:13:11;18.05;;;3.22;;
25503;SDS011;13410;52.114;5.718;2023-02-01T04:15:37;18.77;;;3.35;;
25503;SDS011;13410;52.114;5.718;2023-02-01T04:18:03;17.67;;;2.72;;
25503;SDS011;13410;52.114;5.718;2023-02-01T04:20:29;27.40;;;3.90;;
25503;SDS011;13410;52.114;5.718;2023-02-01T04:22:55;22.75;;;3.85;;
25503;SDS011;13410;52.114;5.718;2023-02-01T04:25:20;18.17;;;3.10;;
25503;SDS011;13410;52.114;5.718;2023-02-01T04:27:46;13.77;;;3.38;;
25503;SDS011;13410;52.114;5.718;2023-02-01T04:30:12;21.25;;;3.33;;
25503;SDS011;13410;52.114;5.718;2023-02-01T04:32:38;20.45;;;3.20;;
25503;SDS011;13410;52.114;5.718;2023-02-01T04:35:04;15.23;;;2.58;;
25503;SDS011;13410;52.114;5.718;2023-02-01T04:37:31;23.23;;;3.40;;
25503;SDS011;13410;52.114;5.718;2023-02-01T04:39:56;15.55;;;2.55;;
25503;SDS011;13410;52.114;5.718;2023-02-01T04:42:22;16.08;;;3.10;;
25503;SDS011;13410;52.114;5.718;2023-02-01T04:44:47;17.83;;;2.92;;
25503;SDS011;13410;52.114;5.718;2023-02-01T04:47:13;17.42;;;3.08;;
25503;SDS011;13410;52.114;5.718;2023-02-01T04:49:40;18.65;;;2.90;;
25503;SDS011;13410;52.114;5.718;2023-02-01T04:52:06;21.13;;;3.17;;
25503;SDS011;13410;52.114;5.718;2023-02-01T04:54:31;29.48;;;3.88;;
25503;SDS011;13410;52.114;5.718;2023-02-01T04:56:57;26.85;;;2.95;;
25503;SDS011;13410;52.114;5.718;2023-02-01T04:59:22;17.73;;;3.20;;
25503;SDS011;13410;52.114;5.718;2023-02-01T05:01:48;17.83;;;2.92;;
25503;SDS011;13410;52.114;5.718;2023-02-01T05:04:13;16.55;;;3.15;;
25503;SDS011;13410;52.114;5.718;2023-02-01T05:06:39;23.45;;;3.53;;
25503;SDS011;13410;52.114;5.718;2023-02-01T05:09:05;15.27;;;2.63;;
25503;SDS011;13410;52.114;5.718;2023-02-01T05:11:30;17.23;;;2.92;;
25503;SDS011;13410;52.114;5.718;2023-02-01T05:14:14;17.75;;;2.88;;
25503;SDS011;13410;52.114;5.718;2023-02-01T05:16:40;19.25;;;3.25;;
25503;SDS011;13410;52.114;5.718;2023-02-01T05:19:05;17.70;;;2.95;;
25503;SDS011;13410;52.114;5.718;2023-02-01T05:21:31;16.63;;;3.00;;
25503;SDS011;13410;52.114;5.718;2023-02-01T05:23:56;19.70;;;2.92;;
25503;SDS011;13410;52.114;5.718;2023-02-01T05:26:34;14.63;;;3.50;;
25503;SDS011;13410;52.114;5.718;2023-02-01T05:29:00;18.48;;;3.33;;
25503;SDS011;13410;52.114;5.718;2023-02-01T05:31:25;18.90;;;2.97;;
25503;SDS011;13410;52.114;5.718;2023-02-01T05:33:51;17.10;;;2.60;;
25503;SDS011;13410;52.114;5.718;2023-02-01T05:36:17;15.88;;;2.95;;
25503;SDS011;13410;52.114;5.718;2023-02-01T05:38:42;20.00;;;3.03;;
25503;SDS011;13410;52.114;5.718;2023-02-01T05:41:08;18.55;;;3.03;;
25503;SDS011;13410;52.114;5.718;2023-02-01T05:43:34;19.00;;;3.13;;
25503;SDS011;13410;52.114;5.718;2023-02-01T05:45:59;14.38;;;2.90;;
25503;SDS011;13410;52.114;5.718;2023-02-01T05:48:25;17.50;;;3.25;;
25503;SDS011;13410;52.114;5.718;2023-02-01T05:50:51;19.50;;;3.25;;
25503;SDS011;13410;52.114;5.718;2023-02-01T05:53:16;19.38;;;3.30;;
25503;SDS011;13410;52.114;5.718;2023-02-01T05:55:42;20.55;;;3.20;;
25503;SDS011;13410;52.114;5.718;2023-02-01T05:58:08;15.90;;;3.03;;
25503;SDS011;13410;52.114;5.718;2023-02-01T06:00:33;18.35;;;3.20;;
25503;SDS011;13410;52.114;5.718;2023-02-01T06:02:59;17.15;;;3.70;;
25503;SDS011;13410;52.114;5.718;2023-02-01T06:05:25;19.73;;;3.35;;
25503;SDS011;13410;52.114;5.718;2023-02-01T06:07:51;19.00;;;3.58;;
25503;SDS011;13410;52.114;5.718;2023-02-01T06:10:17;13.18;;;3.15;;
25503;SDS011;13410;52.114;5.718;2023-02-01T06:12:43;21.65;;;3.45;;
25503;SDS011;13410;52.114;5.718;2023-02-01T06:15:12;19.65;;;2.92;;
25503;SDS011;13410;52.114;5.718;2023-02-01T06:17:39;20.02;;;3.30;;
25503;SDS011;13410;52.114;5.718;2023-02-01T06:20:06;19.88;;;3.47;;
25503;SDS011;13410;52.114;5.718;2023-02-01T06:22:32;17.65;;;3.22;;
25503;SDS011;13410;52.114;5.718;2023-02-01T06:24:58;13.75;;;2.67;;
25503;SDS011;13410;52.114;5.718;2023-02-01T06:27:26;19.98;;;3.03;;
25503;SDS011;13410;52.114;5.718;2023-02-01T06:29:51;19.80;;;3.25;;
25503;SDS011;13410;52.114;5.718;2023-02-01T06:32:17;14.80;;;3.15;;
25503;SDS011;13410;52.114;5.718;2023-02-01T06:34:43;18.58;;;3.15;;
25503;SDS011;13410;52.114;5.718;2023-02-01T06:37:08;23.42;;;3.25;;
25503;SDS011;13410;52.114;5.718;2023-02-01T06:39:35;15.43;;;3.00;;
25503;SDS011;13410;52.114;5.718;2023-02-01T06:42:01;16.92;;;2.65;;
25503;SDS011;13410;52.114;5.718;2023-02-01T06:44:27;24.17;;;3.45;;
25503;SDS011;13410;52.114;5.718;2023-02-01T06:46:52;22.60;;;3.30;;
25503;SDS011;13410;52.114;5.718;2023-02-01T06:49:19;17.40;;;2.83;;
25503;SDS011;13410;52.114;5.718;2023-02-01T06:51:45;21.75;;;4.15;;
25503;SDS011;13410;52.114;5.718;2023-02-01T06:54:11;18.17;;;3.38;;
25503;SDS011;13410;52.114;5.718;2023-02-01T06:56:36;18.20;;;3.90;;
25503;SDS011;13410;52.114;5.718;2023-02-01T06:59:05;18.00;;;3.53;;
25503;SDS011;13410;52.114;5.718;2023-02-01T07:01:32;24.63;;;6.55;;
25503;SDS011;13410;52.114;5.718;2023-02-01T07:03:57;21.17;;;5.85;;
25503;SDS011;13410;52.114;5.718;2023-02-01T07:06:23;29.15;;;8.10;;
25503;SDS011;13410;52.114;5.718;2023-02-01T07:08:49;19.45;;;6.10;;
25503;SDS011;13410;52.114;5.718;2023-02-01T07:11:15;20.27;;;6.63;;
25503;SDS011;13410;52.114;5.718;2023-02-01T07:13:42;22.55;;;4.20;;
25503;SDS011;13410;52.114;5.718;2023-02-01T07:16:15;22.10;;;4.60;;
25503;SDS011;13410;52.114;5.718;2023-02-01T07:18:42;22.23;;;4.57;;
25503;SDS011;13410;52.114;5.718;2023-02-01T07:21:08;19.10;;;3.75;;
25503;SDS011;13410;52.114;5.718;2023-02-01T07:23:34;17.10;;;3.50;;
25503;SDS011;13410;52.114;5.718;2023-02-01T07:26:01;20.13;;;3.67;;
25503;SDS011;13410;52.114;5.718;2023-02-01T07:28:28;16.55;;;3.90;;
25503;SDS011;13410;52.114;5.718;2023-02-01T07:31:01;20.88;;;3.40;;
25503;SDS011;13410;52.114;5.718;2023-02-01T07:33:28;18.35;;;3.13;;
25503;SDS011;13410;52.114;5.718;2023-02-01T07:35:53;20.75;;;3.30;;
25503;SDS011;13410;52.114;5.718;2023-02-01T07:38:19;15.15;;;3.08;;
25503;SDS011;13410;52.114;5.718;2023-02-01T07:40:46;20.65;;;3.67;;
25503;SDS011;13410;52.114;5.718;2023-02-01T07:43:12;17.63;;;3.50;;
25503;SDS011;13410;52.114;5.718;2023-02-01T07:45:37;21.17;;;3.50;;
25503;SDS011;13410;52.114;5.718;2023-02-01T07:48:03;15.10;;;2.97;;
25503;SDS011;13410;52.114;5.718;2023-02-01T07:50:29;18.40;;;3.15;;
25503;SDS011;13410;52.114;5.718;2023-02-01T07:52:55;15.05;;;2.92;;
25503;SDS011;13410;52.114;5.718;2023-02-01T07:55:22;18.40;;;3.08;;
25503;SDS011;13410;52.114;5.718;2023-02-01T07:57:49;13.15;;;2.70;;
25503;SDS011;13410;52.114;5.718;2023-02-01T08:00:15;16.60;;;3.28;;
25503;SDS011;13410;52.114;5.718;2023-02-01T08:03:00;18.83;;;2.90;;
25503;SDS011;13410;52.114;5.718;2023-02-01T08:05:26;18.13;;;2.70;;
25503;SDS011;13410;52.114;5.718;2023-02-01T08:07:52;20.17;;;3.30;;
25503;SDS011;13410;52.114;5.718;2023-02-01T08:10:18;15.52;;;2.80;;
25503;SDS011;13410;52.114;5.718;2023-02-01T08:12:44;14.02;;;2.70;;
25503;SDS011;13410;52.114;5.718;2023-02-01T08:15:16;19.15;;;2.65;;
25503;SDS011;13410;52.114;5.718;2023-02-01T08:17:46;15.90;;;2.92;;
25503;SDS011;13410;52.114;5.718;2023-02-01T08:20:15;15.95;;;3.22;;
25503;SDS011;13410;52.114;5.718;2023-02-01T08:22:42;17.55;;;3.30;;
25503;SDS011;13410;52.114;5.718;2023-02-01T08:25:07;18.55;;;2.83;;
25503;SDS011;13410;52.114;5.718;2023-02-01T08:27:33;16.67;;;3.25;;
25503;SDS011;13410;52.114;5.718;2023-02-01T08:29:59;15.77;;;3.33;;
25503;SDS011;13410;52.114;5.718;2023-02-01T08:32:25;15.68;;;3.65;;
25503;SDS011;13410;52.114;5.718;2023-02-01T08:34:51;16.05;;;3.25;;
25503;SDS011;13410;52.114;5.718;2023-02-01T08:37:16;17.48;;;3.15;;
25503;SDS011;13410;52.114;5.718;2023-02-01T08:39:42;15.73;;;3.38;;
25503;SDS011;13410;52.114;5.718;2023-02-01T08:42:09;14.57;;;3.47;;
25503;SDS011;13410;52.114;5.718;2023-02-01T08:44:54;13.40;;;3.03;;
25503;SDS011;13410;52.114;5.718;2023-02-01T08:47:19;11.13;;;3.13;;
25503;SDS011;13410;52.114;5.718;2023-02-01T08:49:45;16.45;;;2.92;;
25503;SDS011;13410;52.114;5.718;2023-02-01T08:52:11;19.05;;;3.13;;
25503;SDS011;13410;52.114;5.718;2023-02-01T08:54:37;16.88;;;2.95;;
25503;SDS011;13410;52.114;5.718;2023-02-01T08:57:04;19.80;;;3.60;;
25503;SDS011;13410;52.114;5.718;2023-02-01T08:59:29;17.92;;;3.13;;
25503;SDS011;13410;52.114;5.718;2023-02-01T09:01:55;15.80;;;3.35;;
25503;SDS011;13410;52.114;5.718;2023-02-01T09:04:21;22.25;;;5.07;;
25503;SDS011;13410;52.114;5.718;2023-02-01T09:06:46;10.82;;;3.20;;
25503;SDS011;13410;52.114;5.718;2023-02-01T09:09:12;17.17;;;3.50;;
25503;SDS011;13410;52.114;5.718;2023-02-01T09:11:37;21.42;;;4.57;;
25503;SDS011;13410;52.114;5.718;2023-02-01T09:14:03;16.75;;;3.42;;
25503;SDS011;13410;52.114;5.718;2023-02-01T09:16:28;17.98;;;4.35;;
25503;SDS011;13410;52.114;5.718;2023-02-01T09:18:54;22.98;;;5.18;;
25503;SDS011;13410;52.114;5.718;2023-02-01T09:21:20;16.98;;;3.13;;
25503;SDS011;13410;52.114;5.718;2023-02-01T09:23:45;35.50;;;6.85;;
25503;SDS011;13410;52.114;5.718;2023-02-01T09:26:13;20.75;;;4.50;;
25503;SDS011;13410;52.114;5.718;2023-02-01T09:28:39;23.52;;;4.70;;
25503;SDS011;13410;52.114;5.718;2023-02-01T09:31:05;15.20;;;3.75;;
25503;SDS011;13410;52.114;5.718;2023-02-01T09:33:30;13.05;;;3.50;;
25503;SDS011;13410;52.114;5.718;2023-02-01T09:36:00;29.98;;;7.43;;
25503;SDS011;13410;52.114;5.718;2023-02-01T09:38:27;21.33;;;4.68;;
25503;SDS011;13410;52.114;5.718;2023-02-01T09:40:54;28.67;;;7.00;;
25503;SDS011;13410;52.114;5.718;2023-02-01T09:48:49;37.00;;;9.25;;
25503;SDS011;13410;52.114;5.718;2023-02-01T09:51:20;53.50;;;13.57;;
25503;SDS011;13410;52.114;5.718;2023-02-01T09:54:37;32.35;;;6.47;;
25503;SDS011;13410;52.114;5.718;2023-02-01T09:56:49;37.03;;;8.18;;
25503;SDS011;13410;52.114;5.718;2023-02-01T09:59:26;22.77;;;4.50;;
25503;SDS011;13410;52.114;5.718;2023-02-01T10:02:03;13.40;;;3.00;;
25503;SDS011;13410;52.114;5.718;2023-02-01T10:04:35;18.05;;;2.85;;
25503;SDS011;13410;52.114;5.718;2023-02-01T10:07:13;10.70;;;2.58;;
25503;SDS011;13410;52.114;5.718;2023-02-01T10:12:43;15.48;;;3.30;;
25503;SDS011;13410;52.114;5.718;2023-02-01T10:15:30;13.38;;;3.15;;
25503;SDS011;13410;52.114;5.718;2023-02-01T10:18:23;14.85;;;2.92;;
25503;SDS011;13410;52.114;5.718;2023-02-01T10:21:08;24.75;;;3.60;;
25503;SDS011;13410;52.114;5.718;2023-02-01T10:23:45;19.30;;;3.88;;
25503;SDS011;13410;52.114;5.718;2023-02-01T10:26:36;16.40;;;3.70;;
25503;SDS011;13410;52.114;5.718;2023-02-01T10:29:10;28.65;;;6.68;;
25503;SDS011;13410;52.114;5.718;2023-02-01T10:31:41;16.48;;;3.53;;
25503;SDS011;13410;52.114;5.718;2023-02-01T10:34:15;14.60;;;3.50;;
25503;SDS011;13410;52.114;5.718;2023-02-01T10:36:55;20.52;;;3.22;;
25503;SDS011;13410;52.114;5.718;2023-02-01T10:39:26;19.83;;;3.10;;
25503;SDS011;13410;52.114;5.718;2023-02-01T10:41:52;19.02;;;3.40;;
25503;SDS011;13410;52.114;5.718;2023-02-01T10:44:22;11.95;;;2.75;;
25503;SDS011;13410;52.114;5.718;2023-02-01T10:46:51;15.77;;;3.38;;
25503;SDS011;13410;52.114;5.718;2023-02-01T10:49:18;17.25;;;4.20;;
25503;SDS011;13410;52.114;5.718;2023-02-01T10:51:52;22.80;;;4.18;;
25503;SDS011;13410;52.114;5.718;2023-02-01T10:54:20;17.55;;;3.10;;
25503;SDS011;13410;52.114;5.718;2023-02-01T10:56:47;15.80;;;3.00;;
25503;SDS011;13410;52.114;5.718;2023-02-01T10:59:15;15.32;;;4.18;;
25503;SDS011;13410;52.114;5.718;2023-02-01T11:01:48;19.27;;;3.88;;
25503;SDS011;13410;52.114;5.718;2023-02-01T11:04:23;15.20;;;3.08;;
25503;SDS011;13410;52.114;5.718;2023-02-01T11:06:52;21.65;;;3.97;;
25503;SDS011;13410;52.114;5.718;2023-02-01T11:09:30;15.30;;;4.47;;
25503;SDS011;13410;52.114;5.718;2023-02-01T11:11:57;18.23;;;4.25;;
25503;SDS011;13410;52.114;5.718;2023-02-01T11:16:53;15.18;;;3.45;;
25503;SDS011;13410;52.114;5.718;2023-02-01T11:19:22;15.43;;;3.13;;
25503;SDS011;13410;52.114;5.718;2023-02-01T11:21:51;16.40;;;3.33;;
25503;SDS011;13410;52.114;5.718;2023-02-01T11:27:14;19.70;;;3.65;;
25503;SDS011;13410;52.114;5.718;2023-02-01T11:29:42;16.55;;;3.50;;
25503;SDS011;13410;52.114;5.718;2023-02-01T11:32:12;16.90;;;3.67;;
25503;SDS011;13410;52.114;5.718;2023-02-01T11:34:41;20.48;;;3.50;;
25503;SDS011;13410;52.114;5.718;2023-02-01T11:39:54;13.60;;;2.40;;
25503;SDS011;13410;52.114;5.718;2023-02-01T11:42:21;19.45;;;3.38;;
25503;SDS011;13410;52.114;5.718;2023-02-01T11:44:47;18.73;;;3.03;;
25503;SDS011;13410;52.114;5.718;2023-02-01T11:47:26;15.75;;;3.00;;
25503;SDS011;13410;52.114;5.718;2023-02-01T11:49:54;13.73;;;3.10;;
25503;SDS011;13410;52.114;5.718;2023-02-01T11:55:18;20.05;;;3.88;;
25503;SDS011;13410;52.114;5.718;2023-02-01T11:58:23;17.48;;;3.38;;
25503;SDS011;13410;52.114;5.718;2023-02-01T12:07:02;17.20;;;2.88;;
25503;SDS011;13410;52.114;5.718;2023-02-01T12:12:19;13.00;;;3.05;;
25503;SDS011;13410;52.114;5.718;2023-02-01T12:28:54;14.65;;;2.97;;
25503;SDS011;13410;52.114;5.718;2023-02-01T12:37:11;16.15;;;3.17;;
25503;SDS011;13410;52.114;5.718;2023-02-01T12:43:15;19.90;;;5.53;;
25503;SDS011;13410;52.114;5.718;2023-02-01T12:46:09;15.07;;;2.92;;
25503;SDS011;13410;52.114;5.718;2023-02-01T12:51:24;13.63;;;2.63;;
25503;SDS011;13410;52.114;5.718;2023-02-01T12:54:04;17.00;;;3.05;;
25503;SDS011;13410;52.114;5.718;2023-02-01T12:57:00;17.58;;;3.40;;
25503;SDS011;13410;52.114;5.718;2023-02-01T12:59:51;17.10;;;3.42;;
25503;SDS011;13410;52.114;5.718;2023-02-01T13:02:34;11.90;;;2.35;;
25503;SDS011;13410;52.114;5.718;2023-02-01T13:05:04;15.85;;;2.92;;
25503;SDS011;13410;52.114;5.718;2023-02-01T13:18:39;12.10;;;2.88;;
25503;SDS011;13410;52.114;5.718;2023-02-01T13:21:14;19.38;;;3.35;;
25503;SDS011;13410;52.114;5.718;2023-02-01T13:23:52;14.82;;;2.50;;
25503;SDS011;13410;52.114;5.718;2023-02-01T13:26:18;15.52;;;3.05;;
25503;SDS011;13410;52.114;5.718;2023-02-01T13:28:45;20.73;;;4.82;;
25503;SDS011;13410;52.114;5.718;2023-02-01T13:34:28;15.65;;;2.92;;
25503;SDS011;13410;52.114;5.718;2023-02-01T13:37:31;16.73;;;3.00;;
25503;SDS011;13410;52.114;5.718;2023-02-01T13:42:53;19.90;;;2.75;;
25503;SDS011;13410;52.114;5.718;2023-02-01T13:45:32;15.20;;;3.45;;
25503;SDS011;13410;52.114;5.718;2023-02-01T13:48:02;17.92;;;3.13;;
25503;SDS011;13410;52.114;5.718;2023-02-01T13:50:31;20.67;;;3.47;;
25503;SDS011;13410;52.114;5.718;2023-02-01T13:55:46;16.85;;;4.03;;
25503;SDS011;13410;52.114;5.718;2023-02-01T13:58:30;16.27;;;3.90;;
25503;SDS011;13410;52.114;5.718;2023-02-01T14:03:43;22.42;;;5.03;;
25503;SDS011;13410;52.114;5.718;2023-02-01T14:16:38;20.90;;;3.25;;
25503;SDS011;13410;52.114;5.718;2023-02-01T14:19:06;16.23;;;3.05;;
25503;SDS011;13410;52.114;5.718;2023-02-01T14:21:34;13.83;;;3.50;;
25503;SDS011;13410;52.114;5.718;2023-02-01T14:24:20;19.00;;;3.05;;
25503;SDS011;13410;52.114;5.718;2023-02-01T14:27:34;16.55;;;4.65;;
25503;SDS011;13410;52.114;5.718;2023-02-01T14:29:38;30.20;;;10.23;;
25503;SDS011;13410;52.114;5.718;2023-02-01T14:32:17;36.67;;;16.63;;
25503;SDS011;13410;52.114;5.718;2023-02-01T14:44:55;23.70;;;6.45;;
25503;SDS011;13410;52.114;5.718;2023-02-01T14:47:41;15.98;;;4.35;;
25503;SDS011;13410;52.114;5.718;2023-02-01T14:52:34;22.48;;;6.88;;
25503;SDS011;13410;52.114;5.718;2023-02-01T14:55:09;21.83;;;4.00;;
25503;SDS011;13410;52.114;5.718;2023-02-01T14:57:39;16.70;;;3.35;;
25503;SDS011;13410;52.114;5.718;2023-02-01T15:00:14;20.10;;;3.75;;
25503;SDS011;13410;52.114;5.718;2023-02-01T15:02:47;22.58;;;4.30;;
25503;SDS011;13410;52.114;5.718;2023-02-01T15:05:20;16.20;;;3.30;;
25503;SDS011;13410;52.114;5.718;2023-02-01T15:08:11;20.45;;;2.75;;
25503;SDS011;13410;52.114;5.718;2023-02-01T15:10:44;20.63;;;3.40;;
25503;SDS011;13410;52.114;5.718;2023-02-01T15:13:20;17.13;;;3.20;;
25503;SDS011;13410;52.114;5.718;2023-02-01T15:18:30;11.60;;;4.43;;
25503;SDS011;13410;52.114;5.718;2023-02-01T15:20:59;8.07;;;2.20;;
25503;SDS011;13410;52.114;5.718;2023-02-01T15:23:27;7.50;;;2.13;;
25503;SDS011;13410;52.114;5.718;2023-02-01T15:25:54;13.55;;;1.30;;
25503;SDS011;13410;52.114;5.718;2023-02-01T15:28:20;7.82;;;2.05;;
25503;SDS011;13410;52.114;5.718;2023-02-01T15:30:56;9.88;;;2.00;;
25503;SDS011;13410;52.114;5.718;2023-02-01T15:33:27;19.23;;;6.38;;
25503;SDS011;13410;52.114;5.718;2023-02-01T15:38:36;11.07;;;2.17;;
25503;SDS011;13410;52.114;5.718;2023-02-01T15:41:14;14.32;;;3.20;;
25503;SDS011;13410;52.114;5.718;2023-02-01T15:43:46;15.77;;;2.53;;
25503;SDS011;13410;52.114;5.718;2023-02-01T15:46:35;13.65;;;2.88;;
25503;SDS011;13410;52.114;5.718;2023-02-01T15:49:04;9.88;;;2.85;;
25503;SDS011;13410;52.114;5.718;2023-02-01T15:51:43;16.92;;;4.45;;
25503;SDS011;13410;52.114;5.718;2023-02-01T15:54:17;22.90;;;4.35;;
25503;SDS011;13410;52.114;5.718;2023-02-01T15:56:49;23.80;;;4.00;;
25503;SDS011;13410;52.114;5.718;2023-02-01T15:59:19;19.00;;;3.73;;
25503;SDS011;13410;52.114;5.718;2023-02-01T16:01:47;18.33;;;3.67;;
25503;SDS011;13410;52.114;5.718;2023-02-01T16:04:15;20.38;;;3.25;;
25503;SDS011;13410;52.114;5.718;2023-02-01T16:06:49;20.63;;;3.65;;
25503;SDS011;13410;52.114;5.718;2023-02-01T16:09:18;19.63;;;4.13;;
25503;SDS011;13410;52.114;5.718;2023-02-01T16:14:18;17.38;;;3.42;;
25503;SDS011;13410;52.114;5.718;2023-02-01T16:16:43;22.27;;;4.93;;
25503;SDS011;13410;52.114;5.718;2023-02-01T16:19:09;43.88;;;14.60;;
25503;SDS011;13410;52.114;5.718;2023-02-01T16:21:35;30.10;;;8.57;;
25503;SDS011;13410;52.114;5.718;2023-02-01T16:24:00;24.77;;;8.32;;
25503;SDS011;13410;52.114;5.718;2023-02-01T16:26:29;22.02;;;5.30;;
25503;SDS011;13410;52.114;5.718;2023-02-01T16:28:56;21.92;;;5.20;;
25503;SDS011;13410;52.114;5.718;2023-02-01T16:31:23;21.05;;;5.35;;
25503;SDS011;13410;52.114;5.718;2023-02-01T16:33:53;29.00;;;7.50;;
25503;SDS011;13410;52.114;5.718;2023-02-01T16:36:18;20.58;;;6.05;;
25503;SDS011;13410;52.114;5.718;2023-02-01T16:38:45;26.90;;;6.22;;
25503;SDS011;13410;52.114;5.718;2023-02-01T16:41:15;17.55;;;3.75;;
25503;SDS011;13410;52.114;5.718;2023-02-01T16:43:43;31.40;;;8.65;;
25503;SDS011;13410;52.114;5.718;2023-02-01T16:46:13;27.02;;;6.20;;
25503;SDS011;13410;52.114;5.718;2023-02-01T16:48:41;30.33;;;8.30;;
25503;SDS011;13410;52.114;5.718;2023-02-01T16:51:11;47.97;;;17.25;;
25503;SDS011;13410;52.114;5.718;2023-02-01T16:53:39;43.65;;;15.45;;
25503;SDS011;13410;52.114;5.718;2023-02-01T16:56:09;41.80;;;18.73;;
25503;SDS011;13410;52.114;5.718;2023-02-01T16:58:45;21.58;;;4.93;;
25503;SDS011;13410;52.114;5.718;2023-02-01T17:01:12;19.23;;;3.30;;
25503;SDS011;13410;52.114;5.718;2023-02-01T17:03:39;7.43;;;1.73;;
25503;SDS011;13410;52.114;5.718;2023-02-01T17:06:06;7.60;;;1.50;;
25503;SDS011;13410;52.114;5.718;2023-02-01T17:08:35;11.02;;;3.00;;
25503;SDS011;13410;52.114;5.718;2023-02-01T17:11:03;11.15;;;3.13;;